Time;durP1;ratioP1;P1;durP2;ratioP2;P2;SDS_P1;SDS_P2;PMS_P1;PMS_P2;Temp;Humidity;BMP_temperature;BMP_pressure;BME280_temperature;BME280_humidity;BME280_pressure;Samples;Min_cycle;Max_cycle;Signal;HPM_P1;HPM_P2
2023/09/30 00:01:46;;;;;;;10.68;4.25;;;10.90;99.90;;;;;;5107200;28;20043;-90
2023/09/30 00:04:12;;;;;;;11.48;4.07;;;10.90;99.90;;;;;;5078438;28;20039;-89
2023/09/30 00:06:37;;;;;;;13.75;4.43;;;10.90;99.90;;;;;;5109487;28;20050;-89
2023/09/30 00:09:05;;;;;;;13.65;4.53;;;10.90;99.90;;;;;;5096083;28;20183;-87
2023/09/30 00:11:30;;;;;;;12.38;4.13;;;11.80;99.90;;;;;;5101102;28;20102;-89
2023/09/30 00:13:56;;;;;;;11.85;4.30;;;10.90;99.90;;;;;;5112221;28;20096;-89
2023/09/30 00:16:23;;;;;;;12.25;4.57;;;12.00;99.90;;;;;;5093215;28;20039;-89
2023/09/30 00:18:48;;;;;;;15.40;5.07;;;10.90;99.90;;;;;;5093908;28;20040;-89
2023/09/30 00:21:15;;;;;;;9.48;4.30;;;11.20;99.90;;;;;;5107655;28;20043;-89
2023/09/30 00:23:41;;;;;;;12.93;4.35;;;11.50;99.90;;;;;;5076494;28;20044;-89
2023/09/30 00:26:07;;;;;;;11.77;4.18;;;10.90;99.90;;;;;;5103790;28;20458;-89
2023/09/30 00:28:33;;;;;;;11.80;3.97;;;10.90;99.90;;;;;;5075689;28;20084;-90
2023/09/30 00:30:58;;;;;;;9.07;3.72;;;10.80;99.90;;;;;;5108672;28;20047;-89
2023/09/30 00:33:25;;;;;;;11.60;4.20;;;10.90;99.90;;;;;;5097550;28;20034;-88
2023/09/30 00:35:50;;;;;;;9.80;4.43;;;10.80;99.90;;;;;;5079675;28;20466;-88
2023/09/30 00:38:16;;;;;;;12.85;4.22;;;11.20;99.90;;;;;;5102711;28;20089;-88
2023/09/30 00:40:49;;;;;;;7.50;3.90;;;10.90;99.90;;;;;;5087220;28;20040;-89
2023/09/30 00:43:19;;;;;;;11.50;4.82;;;10.90;99.90;;;;;;5101703;28;20050;-89
2023/09/30 00:45:45;;;;;;;13.98;4.22;;;10.80;99.90;;;;;;5095124;28;20148;-88
2023/09/30 00:48:11;;;;;;;12.05;3.63;;;10.80;99.90;;;;;;5078655;28;20729;-89
2023/09/30 00:50:37;;;;;;;10.43;4.32;;;10.90;99.90;;;;;;5112121;28;20046;-89
2023/09/30 00:53:03;;;;;;;13.23;4.30;;;11.60;99.90;;;;;;5106131;28;20059;-89
2023/09/30 00:55:29;;;;;;;12.90;4.25;;;10.90;99.90;;;;;;5106398;28;20047;-89
2023/09/30 00:57:57;;;;;;;10.15;4.28;;;10.80;99.90;;;;;;5113460;28;20564;-89
2023/09/30 01:00:25;;;;;;;10.55;4.95;;;10.90;99.90;;;;;;5095906;28;20043;-89
2023/09/30 01:02:52;;;;;;;16.70;4.40;;;10.90;99.90;;;;;;5102326;28;20055;-89
2023/09/30 01:05:19;;;;;;;14.30;4.75;;;10.90;99.90;;;;;;5099309;28;20047;-89
2023/09/30 01:07:44;;;;;;;14.38;4.43;;;10.90;99.90;;;;;;5097656;27;20043;-88
2023/09/30 01:10:10;;;;;;;12.05;4.40;;;11.00;99.90;;;;;;5093621;28;20044;-88
2023/09/30 01:12:37;;;;;;;13.43;5.40;;;11.00;99.90;;;;;;5096445;28;20035;-87
2023/09/30 01:15:05;;;;;;;13.93;5.20;;;11.00;99.90;;;;;;5099097;28;20083;-88
2023/09/30 01:17:31;;;;;;;16.52;4.72;;;11.10;99.90;;;;;;5096094;28;20817;-89
2023/09/30 01:20:05;;;;;;;13.63;5.10;;;11.10;99.90;;;;;;5081852;28;20044;-89
2023/09/30 01:22:33;;;;;;;12.55;5.03;;;11.10;99.90;;;;;;5088668;27;20039;-88
2023/09/30 01:24:59;;;;;;;13.10;4.75;;;11.10;99.90;;;;;;5090155;27;20051;-88
2023/09/30 01:27:25;;;;;;;9.98;5.00;;;11.10;99.90;;;;;;5099252;27;20040;-88
2023/09/30 01:29:51;;;;;;;14.75;5.25;;;11.20;99.90;;;;;;5093390;28;20104;-89
2023/09/30 01:32:17;;;;;;;13.95;5.25;;;11.10;99.90;;;;;;5111634;28;20074;-89
2023/09/30 01:34:44;;;;;;;13.18;5.47;;;11.20;99.90;;;;;;5080741;27;20058;-89
2023/09/30 01:37:11;;;;;;;14.63;4.88;;;11.20;99.90;;;;;;5098972;27;20187;-88
2023/09/30 01:39:40;;;;;;;12.50;4.72;;;11.20;99.90;;;;;;5096150;28;20059;-89
2023/09/30 01:42:05;;;;;;;13.70;4.30;;;11.20;99.90;;;;;;5093200;28;20049;-87
2023/09/30 01:44:32;;;;;;;16.90;4.75;;;11.20;99.90;;;;;;5090720;28;20040;-88
2023/09/30 01:46:58;;;;;;;17.08;4.90;;;11.20;99.90;;;;;;5103505;28;20753;-90
2023/09/30 01:49:25;;;;;;;13.55;4.88;;;11.20;99.90;;;;;;5093782;28;20044;-89
2023/09/30 01:51:51;;;;;;;13.63;4.65;;;11.20;99.90;;;;;;5111578;28;20047;-89
2023/09/30 01:54:17;;;;;;;15.80;5.13;;;11.20;99.90;;;;;;5087369;28;20042;-88
2023/09/30 01:56:42;;;;;;;11.57;4.40;;;11.10;99.90;;;;;;5091196;28;20036;-89
2023/09/30 01:59:08;;;;;;;14.25;5.00;;;11.70;99.90;;;;;;5097840;28;20044;-88
2023/09/30 02:01:34;;;;;;;15.13;4.68;;;11.10;99.90;;;;;;5104828;28;20136;-89
2023/09/30 02:04:00;;;;;;;17.40;5.53;;;11.10;99.90;;;;;;5092170;28;20098;-88
2023/09/30 02:06:29;;;;;;;13.10;4.70;;;11.10;99.90;;;;;;5081082;28;20075;-88
2023/09/30 02:08:55;;;;;;;10.30;4.55;;;12.00;99.90;;;;;;5109871;28;20051;-89
2023/09/30 02:11:21;;;;;;;16.48;5.50;;;11.00;99.90;;;;;;5098763;28;20569;-88
2023/09/30 02:13:46;;;;;;;14.43;4.85;;;11.10;99.90;;;;;;5074336;28;20148;-88
2023/09/30 02:16:14;;;;;;;11.68;4.38;;;11.10;99.90;;;;;;5091026;28;20086;-87
2023/09/30 02:18:44;;;;;;;12.13;4.82;;;11.80;99.90;;;;;;5093732;28;20040;-88
2023/09/30 02:21:10;;;;;;;13.85;5.07;;;11.00;99.90;;;;;;5073606;28;20040;-87
2023/09/30 02:23:37;;;;;;;12.18;5.00;;;11.10;99.90;;;;;;5076085;28;20040;-88
2023/09/30 02:26:04;;;;;;;12.30;4.72;;;11.00;99.90;;;;;;5104337;28;20112;-89
2023/09/30 02:28:34;;;;;;;13.77;4.80;;;11.00;99.90;;;;;;5093477;28;20047;-89
2023/09/30 02:31:00;;;;;;;12.85;4.85;;;11.00;99.90;;;;;;5106014;28;20495;-89
2023/09/30 02:33:26;;;;;;;12.77;4.93;;;11.00;99.90;;;;;;5077996;28;20517;-88
2023/09/30 02:35:51;;;;;;;13.88;4.70;;;11.00;99.90;;;;;;5106939;28;20036;-89
2023/09/30 02:38:18;;;;;;;11.52;4.43;;;11.00;99.90;;;;;;5091073;28;20056;-88
2023/09/30 02:40:46;;;;;;;12.52;4.70;;;11.00;99.90;;;;;;5096095;28;20055;-90
2023/09/30 02:43:13;;;;;;;11.00;4.75;;;10.90;99.90;;;;;;5093094;28;20547;-88
2023/09/30 02:45:43;;;;;;;10.98;4.65;;;10.90;99.90;;;;;;5089726;28;20087;-89
2023/09/30 02:48:09;;;;;;;14.55;4.97;;;10.90;99.90;;;;;;5111114;28;20558;-88
2023/09/30 02:50:35;;;;;;;10.02;4.75;;;10.90;99.90;;;;;;5099482;28;20048;-88
2023/09/30 02:53:01;;;;;;;9.80;4.05;;;10.90;99.90;;;;;;5111264;28;20040;-88
2023/09/30 02:55:28;;;;;;;11.95;4.88;;;11.00;99.90;;;;;;5089198;28;20498;-89
2023/09/30 02:57:54;;;;;;;12.70;5.00;;;10.90;99.90;;;;;;5073352;28;20139;-88
2023/09/30 03:00:32;;;;;;;11.88;4.63;;;11.00;99.90;;;;;;5071176;28;20131;-88
2023/09/30 03:03:00;;;;;;;9.98;4.53;;;11.00;99.90;;;;;;5075293;28;20832;-89
2023/09/30 03:05:27;;;;;;;12.05;4.93;;;10.90;99.90;;;;;;5097430;28;20055;-89
2023/09/30 03:07:55;;;;;;;11.50;5.15;;;10.90;99.90;;;;;;5110925;28;20051;-89
2023/09/30 03:10:23;;;;;;;13.32;5.03;;;11.00;99.90;;;;;;5079162;28;20142;-89
2023/09/30 03:12:49;;;;;;;12.10;4.68;;;11.00;99.90;;;;;;5082741;28;20100;-89
2023/09/30 03:15:16;;;;;;;14.98;6.18;;;11.00;99.90;;;;;;5098483;28;20062;-89
2023/09/30 03:17:41;;;;;;;11.48;5.22;;;11.00;99.90;;;;;;5092157;28;20036;-89
2023/09/30 03:20:11;;;;;;;10.45;4.95;;;10.90;99.90;;;;;;5103711;28;20105;-89
2023/09/30 03:22:40;;;;;;;11.18;4.90;;;10.90;99.90;;;;;;5071924;28;20051;-89
2023/09/30 03:25:11;;;;;;;12.82;5.82;;;10.90;99.90;;;;;;5104977;28;20036;-88
2023/09/30 03:27:38;;;;;;;14.38;5.80;;;10.90;99.90;;;;;;5104780;28;20039;-87
2023/09/30 03:30:08;;;;;;;15.23;5.40;;;10.90;99.90;;;;;;5073137;28;20059;-89
2023/09/30 03:32:42;;;;;;;15.23;5.13;;;10.90;99.90;;;;;;5101736;28;20054;-89
2023/09/30 03:35:18;;;;;;;12.20;5.28;;;10.90;99.90;;;;;;5087167;28;20421;-88
2023/09/30 03:37:46;;;;;;;12.18;4.70;;;10.90;99.90;;;;;;5113950;27;20063;-90
2023/09/30 03:40:14;;;;;;;11.02;4.90;;;10.90;99.90;;;;;;5076293;28;20071;-89
2023/09/30 03:42:43;;;;;;;9.50;4.85;;;11.30;99.90;;;;;;5076523;28;20081;-88
2023/09/30 03:45:10;;;;;;;10.13;4.80;;;10.90;99.90;;;;;;5111145;28;20093;-88
2023/09/30 03:47:36;;;;;;;12.63;5.10;;;10.90;99.90;;;;;;5097066;27;20528;-88
2023/09/30 03:50:03;;;;;;;12.27;4.60;;;10.90;99.90;;;;;;5091603;28;20415;-90
2023/09/30 03:52:32;;;;;;;8.35;4.32;;;10.90;99.90;;;;;;5087332;28;20041;-89
2023/09/30 03:54:59;;;;;;;9.60;4.72;;;10.80;99.90;;;;;;5110065;28;20798;-88
2023/09/30 03:57:24;;;;;;;10.13;4.97;;;10.80;99.90;;;;;;5090899;28;20492;-89
2023/09/30 03:59:50;;;;;;;15.48;5.07;;;10.80;99.90;;;;;;5093790;28;20079;-89
2023/09/30 04:02:15;;;;;;;10.73;5.30;;;10.80;99.90;;;;;;5112444;28;20370;-88
2023/09/30 04:04:43;;;;;;;12.45;5.53;;;10.90;99.90;;;;;;5079468;28;20039;-89
2023/09/30 04:07:11;;;;;;;9.38;5.13;;;10.90;99.90;;;;;;5092785;28;20042;-88
2023/09/30 04:09:37;;;;;;;13.73;4.97;;;10.90;99.90;;;;;;5111124;28;20402;-88
2023/09/30 04:12:03;;;;;;;15.27;5.10;;;10.90;99.90;;;;;;5084463;28;20039;-89
2023/09/30 04:14:29;;;;;;;13.40;5.57;;;10.80;99.90;;;;;;5095447;28;20062;-88
2023/09/30 04:16:55;;;;;;;11.27;5.88;;;10.90;99.90;;;;;;5096187;28;20043;-89
2023/09/30 04:19:23;;;;;;;12.52;5.38;;;10.90;99.90;;;;;;5095576;28;20101;-89
2023/09/30 04:21:49;;;;;;;9.65;5.10;;;10.80;99.90;;;;;;5075889;28;20051;-88
2023/09/30 04:24:15;;;;;;;12.07;5.70;;;10.90;99.90;;;;;;5093786;28;20044;-90
2023/09/30 04:26:41;;;;;;;11.32;5.35;;;10.90;99.90;;;;;;5105206;28;20042;-88
2023/09/30 04:29:10;;;;;;;11.43;5.68;;;10.90;99.90;;;;;;5092079;28;20050;-89
2023/09/30 04:31:39;;;;;;;13.63;5.47;;;10.90;99.90;;;;;;5091782;28;20048;-89
2023/09/30 04:34:04;;;;;;;15.50;5.72;;;11.00;99.90;;;;;;5102083;28;20051;-88
2023/09/30 04:36:31;;;;;;;14.65;6.20;;;11.00;99.90;;;;;;5105064;28;20050;-89
2023/09/30 04:39:00;;;;;;;11.63;5.50;;;11.00;99.90;;;;;;5075379;28;20079;-89
2023/09/30 04:41:28;;;;;;;12.63;5.60;;;11.00;99.90;;;;;;5079126;28;20143;-89
2023/09/30 04:43:54;;;;;;;12.88;5.68;;;11.00;99.90;;;;;;5096779;28;20044;-89
2023/09/30 04:46:23;;;;;;;11.63;5.80;;;11.00;99.90;;;;;;5096890;28;20031;-90
2023/09/30 04:48:52;;;;;;;11.23;5.25;;;11.00;99.90;;;;;;5096476;28;20163;-90
2023/09/30 04:51:18;;;;;;;14.35;5.38;;;11.40;99.90;;;;;;5097475;27;20081;-89
2023/09/30 04:53:46;;;;;;;11.02;6.22;;;11.00;99.90;;;;;;5092767;28;20765;-88
2023/09/30 04:56:12;;;;;;;12.25;5.72;;;11.00;99.90;;;;;;5079538;27;20118;-89
2023/09/30 04:58:38;;;;;;;8.98;5.20;;;11.00;99.90;;;;;;5101380;27;20066;-88
2023/09/30 05:01:04;;;;;;;9.90;5.57;;;11.00;99.90;;;;;;5113818;27;20556;-88
2023/09/30 05:03:29;;;;;;;20.17;6.90;;;11.00;99.90;;;;;;5100517;28;20039;-89
2023/09/30 05:05:57;;;;;;;14.95;6.25;;;11.10;99.90;;;;;;5097044;28;20451;-89
2023/09/30 05:08:24;;;;;;;14.63;6.50;;;11.00;99.90;;;;;;5106637;27;20497;-87
2023/09/30 05:10:50;;;;;;;16.42;6.40;;;11.10;99.90;;;;;;5094987;28;20071;-88
2023/09/30 05:13:17;;;;;;;12.98;6.40;;;11.10;99.90;;;;;;5078084;28;20044;-89
2023/09/30 05:15:43;;;;;;;11.57;5.90;;;11.10;99.90;;;;;;5089353;27;20150;-87
2023/09/30 05:18:09;;;;;;;15.70;7.13;;;11.10;99.90;;;;;;5112871;27;20383;-88
2023/09/30 05:20:37;;;;;;;15.90;6.30;;;11.90;99.90;;;;;;5109475;27;20037;-87
2023/09/30 05:23:03;;;;;;;11.45;6.30;;;11.10;99.90;;;;;;5113249;27;20267;-88
2023/09/30 05:25:30;;;;;;;12.13;6.38;;;11.10;99.90;;;;;;5108010;27;20043;-88
2023/09/30 05:27:56;;;;;;;11.88;6.38;;;11.30;99.90;;;;;;5122450;27;20472;-88
2023/09/30 05:30:22;;;;;;;12.07;5.70;;;11.10;99.90;;;;;;5086828;27;20039;-86
2023/09/30 05:32:48;;;;;;;9.35;6.18;;;11.10;99.90;;;;;;5114361;27;20039;-88
2023/09/30 05:35:16;;;;;;;13.02;5.97;;;11.70;99.90;;;;;;5115895;27;20071;-87
2023/09/30 05:37:43;;;;;;;16.65;6.97;;;11.00;99.90;;;;;;5114495;27;20397;-88
2023/09/30 05:40:20;;;;;;;13.10;6.80;;;11.60;99.90;;;;;;5089812;28;20396;-87
2023/09/30 05:42:45;;;;;;;8.82;6.53;;;11.00;99.90;;;;;;5093247;28;20753;-88
2023/09/30 05:45:12;;;;;;;15.82;7.22;;;11.00;99.90;;;;;;5099836;27;20127;-88
2023/09/30 05:47:38;;;;;;;11.05;6.75;;;11.00;99.90;;;;;;5093003;27;20031;-87
2023/09/30 05:50:07;;;;;;;14.57;7.65;;;10.90;99.90;;;;;;5095457;27;20337;-87
2023/09/30 05:52:33;;;;;;;11.50;6.82;;;10.90;99.90;;;;;;5087123;27;20070;-87
2023/09/30 05:55:00;;;;;;;14.10;7.57;;;11.00;99.90;;;;;;5099572;27;20498;-88
2023/09/30 05:57:28;;;;;;;14.90;7.38;;;11.00;99.90;;;;;;5106498;27;20572;-87
2023/09/30 05:59:54;;;;;;;9.63;6.15;;;11.00;99.90;;;;;;5097348;28;20841;-86
2023/09/30 06:02:20;;;;;;;12.02;6.55;;;11.00;99.90;;;;;;5109384;27;20122;-87
2023/09/30 06:04:46;;;;;;;10.70;7.05;;;11.00;99.90;;;;;;5106983;27;20099;-86
2023/09/30 06:07:13;;;;;;;10.45;6.07;;;11.00;99.90;;;;;;5083642;27;20073;-87
2023/09/30 06:09:38;;;;;;;14.25;6.85;;;10.90;99.90;;;;;;5094939;27;20095;-86
2023/09/30 06:12:06;;;;;;;13.07;7.25;;;10.90;99.90;;;;;;5112779;27;20150;-87
2023/09/30 06:14:32;;;;;;;12.25;6.93;;;10.90;99.90;;;;;;5110819;27;20054;-87
2023/09/30 06:16:58;;;;;;;12.23;7.25;;;10.90;99.90;;;;;;5102618;28;20498;-85
2023/09/30 06:19:24;;;;;;;10.13;6.60;;;10.90;99.90;;;;;;5123977;27;20127;-86
2023/09/30 06:21:50;;;;;;;14.45;7.05;;;11.00;99.90;;;;;;5097036;27;20054;-85
2023/09/30 06:24:16;;;;;;;11.43;7.15;;;11.00;99.90;;;;;;5131419;27;20035;-88
2023/09/30 06:26:41;;;;;;;11.85;7.20;;;11.00;99.90;;;;;;5096017;28;20078;-89
2023/09/30 06:29:07;;;;;;;12.30;7.13;;;11.00;99.90;;;;;;5093719;27;20521;-81
2023/09/30 06:31:33;;;;;;;12.32;7.38;;;11.10;99.90;;;;;;5124704;27;20062;-87
2023/09/30 06:34:00;;;;;;;9.75;6.80;;;11.10;99.90;;;;;;5107037;27;20156;-86
2023/09/30 06:36:26;;;;;;;15.15;7.70;;;11.20;99.90;;;;;;5099151;27;20123;-88
2023/09/30 06:38:52;;;;;;;13.98;7.43;;;11.30;99.90;;;;;;5091232;28;20620;-86
2023/09/30 06:41:18;;;;;;;15.20;7.78;;;11.40;99.90;;;;;;5094397;28;20077;-86
2023/09/30 06:43:44;;;;;;;13.50;8.07;;;11.40;99.90;;;;;;5091390;28;20760;-86
2023/09/30 06:46:10;;;;;;;15.98;8.32;;;11.50;99.90;;;;;;5099956;27;20047;-87
2023/09/30 06:48:42;;;;;;;15.38;8.75;;;11.60;99.90;;;;;;5106414;28;20039;-86
2023/09/30 06:51:08;;;;;;;13.13;8.27;;;11.70;99.90;;;;;;5085908;27;20070;-86
2023/09/30 06:53:35;;;;;;;16.85;8.15;;;11.70;99.90;;;;;;5100328;28;20067;-87
2023/09/30 06:56:04;;;;;;;12.27;7.93;;;11.80;99.90;;;;;;5092999;28;20051;-86
2023/09/30 06:58:30;;;;;;;14.30;8.20;;;11.90;99.90;;;;;;5093287;28;20077;-86
2023/09/30 07:00:56;;;;;;;15.38;9.18;;;11.90;99.90;;;;;;5106080;27;20038;-86
2023/09/30 07:03:22;;;;;;;14.73;9.50;;;12.20;99.90;;;;;;5098543;27;20035;-89
2023/09/30 07:05:51;;;;;;;13.85;8.85;;;12.10;99.90;;;;;;5112423;27;20123;-85
2023/09/30 07:08:17;;;;;;;16.67;9.45;;;12.20;99.90;;;;;;5112198;27;20066;-86
2023/09/30 07:10:45;;;;;;;14.27;9.40;;;12.30;99.90;;;;;;5113053;27;20051;-85
2023/09/30 07:13:11;;;;;;;12.80;9.13;;;12.40;99.90;;;;;;5110145;27;20047;-86
2023/09/30 07:15:37;;;;;;;19.25;9.50;;;12.40;99.90;;;;;;5111420;27;20042;-85
2023/09/30 07:18:03;;;;;;;16.08;9.60;;;12.50;99.90;;;;;;5088460;27;20031;-85
2023/09/30 07:20:32;;;;;;;17.20;9.55;;;12.60;99.90;;;;;;5100090;28;20855;-84
2023/09/30 07:23:00;;;;;;;16.63;9.52;;;12.70;99.90;;;;;;5076052;27;20041;-86
2023/09/30 07:25:25;;;;;;;15.60;9.82;;;12.80;99.90;;;;;;5093411;28;20050;-86
2023/09/30 07:27:52;;;;;;;14.68;8.70;;;12.90;99.90;;;;;;5109090;27;20399;-87
2023/09/30 07:30:17;;;;;;;14.95;9.50;;;13.00;99.90;;;;;;5107517;27;20446;-85
2023/09/30 07:32:44;;;;;;;15.38;9.00;;;13.00;99.90;;;;;;5103599;28;20047;-84
2023/09/30 07:35:14;;;;;;;14.98;9.05;;;13.20;99.90;;;;;;5109116;28;20044;-89
2023/09/30 07:37:39;;;;;;;14.25;9.20;;;13.30;99.90;;;;;;5073685;28;20054;-87
2023/09/30 07:40:07;;;;;;;14.55;10.00;;;13.30;99.90;;;;;;5093829;28;20524;-88
2023/09/30 07:42:33;;;;;;;14.73;8.93;;;13.50;99.90;;;;;;5090651;28;20059;-88
2023/09/30 07:44:59;;;;;;;14.32;8.73;;;13.50;99.90;;;;;;5095740;28;20104;-87
2023/09/30 07:47:30;;;;;;;14.40;8.80;;;13.60;99.90;;;;;;5081407;28;20044;-89
2023/09/30 07:49:56;;;;;;;13.10;8.48;;;13.60;99.90;;;;;;5090495;28;20519;-88
2023/09/30 07:52:22;;;;;;;16.42;9.30;;;13.60;99.90;;;;;;5094224;28;20039;-87
2023/09/30 07:54:47;;;;;;;15.70;8.82;;;13.70;99.90;;;;;;5092256;28;20089;-88
2023/09/30 07:57:13;;;;;;;13.80;8.25;;;13.70;99.90;;;;;;5108772;28;20039;-88
2023/09/30 07:59:39;;;;;;;14.27;8.90;;;13.90;99.90;;;;;;5109420;28;20051;-87
2023/09/30 08:02:04;;;;;;;18.27;8.98;;;13.90;99.90;;;;;;5109515;28;20070;-88
2023/09/30 08:04:31;;;;;;;13.57;8.38;;;14.00;99.90;;;;;;5108609;28;20396;-87
2023/09/30 08:06:56;;;;;;;12.45;8.30;;;14.70;99.90;;;;;;5109341;28;20378;-87
2023/09/30 08:09:23;;;;;;;15.25;8.60;;;14.30;99.90;;;;;;5110588;28;20050;-88
2023/09/30 08:11:53;;;;;;;11.70;7.55;;;14.30;99.90;;;;;;5093194;28;20082;-88
2023/09/30 08:14:19;;;;;;;16.25;8.15;;;14.90;99.90;;;;;;5091461;28;20040;-88
2023/09/30 08:16:44;;;;;;;16.63;8.48;;;14.60;99.90;;;;;;5094586;28;20048;-86
2023/09/30 08:19:10;;;;;;;12.52;8.20;;;14.70;99.90;;;;;;5095096;28;20379;-88
2023/09/30 08:21:35;;;;;;;12.63;7.53;;;14.70;99.90;;;;;;5094311;28;20466;-88
2023/09/30 08:24:02;;;;;;;14.70;7.97;;;14.90;99.90;;;;;;5077907;28;20071;-88
2023/09/30 08:26:28;;;;;;;12.23;7.90;;;15.00;99.90;;;;;;5094066;28;20090;-88
2023/09/30 08:28:53;;;;;;;13.93;7.45;;;15.10;99.90;;;;;;5094101;28;20079;-87
2023/09/30 08:31:19;;;;;;;12.10;7.00;;;15.20;99.90;;;;;;5094105;28;20458;-88
2023/09/30 08:33:45;;;;;;;14.65;7.65;;;15.30;99.90;;;;;;5094292;28;20040;-87
2023/09/30 08:36:14;;;;;;;13.10;7.53;;;15.40;99.90;;;;;;5094154;28;20112;-88
2023/09/30 08:38:40;;;;;;;11.20;8.13;;;15.50;99.90;;;;;;5095304;28;20058;-88
2023/09/30 08:41:07;;;;;;;11.98;8.05;;;15.50;99.90;;;;;;5093748;28;20096;-89
2023/09/30 08:43:38;;;;;;;9.32;7.00;;;15.50;99.90;;;;;;5094246;28;20058;-89
2023/09/30 08:46:05;;;;;;;13.20;8.10;;;15.60;99.90;;;;;;5094542;28;20050;-87
2023/09/30 08:48:32;;;;;;;12.55;7.47;;;15.60;99.90;;;;;;5093863;28;20043;-88
2023/09/30 08:51:00;;;;;;;14.00;8.18;;;15.80;99.90;;;;;;5094439;28;20509;-87
2023/09/30 08:53:26;;;;;;;11.15;7.45;;;15.90;99.90;;;;;;5095730;27;20403;-88
2023/09/30 08:55:56;;;;;;;16.65;8.13;;;16.00;99.90;;;;;;5113875;27;20043;-87
2023/09/30 08:58:30;;;;;;;13.65;8.38;;;16.20;99.90;;;;;;5114451;27;20050;-88
2023/09/30 09:00:56;;;;;;;12.48;7.45;;;16.30;99.90;;;;;;5114774;27;20047;-89
2023/09/30 09:03:22;;;;;;;11.77;6.90;;;17.10;99.90;;;;;;5114765;27;20050;-87
2023/09/30 09:05:56;;;;;;;12.68;6.95;;;16.40;99.90;;;;;;5113874;27;20493;-88
2023/09/30 09:08:23;;;;;;;12.88;6.60;;;16.50;99.90;;;;;;5096078;27;20039;-88
2023/09/30 09:10:56;;;;;;;10.27;7.05;;;16.60;99.90;;;;;;5096420;27;20099;-87
2023/09/30 09:13:22;;;;;;;11.25;6.50;;;17.10;99.90;;;;;;5113926;27;20031;-87
2023/09/30 09:15:48;;;;;;;11.32;7.10;;;16.60;99.90;;;;;;5112966;27;20096;-87
2023/09/30 09:18:32;;;;;;;11.93;6.28;;;16.80;99.90;;;;;;5113964;27;20043;-89
2023/09/30 09:21:16;;;;;;;10.98;6.80;;;17.00;99.90;;;;;;5108296;28;20043;-88
2023/09/30 09:23:46;;;;;;;13.07;7.00;;;16.90;99.90;;;;;;5076318;28;20040;-87
2023/09/30 09:26:26;;;;;;;11.70;6.35;;;17.00;99.90;;;;;;5091883;28;20085;-87
2023/09/30 09:29:04;;;;;;;9.63;6.32;;;17.10;99.90;;;;;;5093091;28;20055;-87
2023/09/30 09:31:34;;;;;;;9.55;5.97;;;17.20;99.90;;;;;;5075871;28;20049;-88
2023/09/30 09:34:01;;;;;;;12.43;5.60;;;17.30;99.90;;;;;;5092798;28;20120;-89
2023/09/30 09:36:40;;;;;;;10.23;5.85;;;18.30;99.90;;;;;;5076190;28;20054;-88
2023/09/30 09:39:06;;;;;;;12.07;6.95;;;17.40;99.90;;;;;;5096598;27;20043;-88
2023/09/30 09:41:32;;;;;;;15.82;7.05;;;17.40;99.90;;;;;;5113990;27;20156;-88
2023/09/30 09:43:59;;;;;;;9.50;6.30;;;17.40;99.90;;;;;;5113244;27;20517;-88
2023/09/30 09:46:25;;;;;;;13.45;5.85;;;17.50;99.90;;;;;;5095776;27;20043;-88
2023/09/30 09:48:53;;;;;;;13.65;6.47;;;17.70;99.90;;;;;;5096338;27;20545;-88
2023/09/30 09:51:20;;;;;;;11.88;6.53;;;17.70;99.90;;;;;;5114964;27;20073;-88
2023/09/30 09:53:49;;;;;;;13.57;6.25;;;18.30;99.90;;;;;;5113860;27;20486;-88
2023/09/30 09:56:16;;;;;;;10.70;5.70;;;17.90;99.90;;;;;;5112609;27;20549;-88
2023/09/30 09:58:43;;;;;;;11.95;6.13;;;17.90;99.90;;;;;;5113036;27;20451;-88
2023/09/30 10:01:10;;;;;;;11.68;5.72;;;17.90;99.90;;;;;;5095239;27;20599;-88
2023/09/30 10:03:37;;;;;;;10.70;5.32;;;18.00;99.90;;;;;;5095111;27;20625;-88
2023/09/30 10:06:04;;;;;;;13.73;5.78;;;19.10;99.90;;;;;;5096194;27;20043;-89
2023/09/30 10:08:42;;;;;;;11.20;5.43;;;18.20;99.90;;;;;;5112954;27;20047;-88
2023/09/30 10:11:09;;;;;;;7.97;5.00;;;18.30;99.90;;;;;;5112698;27;20047;-88
2023/09/30 10:14:00;;;;;;;11.15;6.05;;;18.30;99.90;;;;;;5113188;27;20039;-87
2023/09/30 10:16:35;;;;;;;10.88;5.45;;;18.30;99.90;;;;;;5104087;28;20599;-88
2023/09/30 10:19:11;;;;;;;9.15;4.78;;;18.80;99.90;;;;;;5092099;28;20078;-88
2023/09/30 10:21:37;;;;;;;9.38;4.50;;;18.40;99.90;;;;;;5092815;28;20055;-87
2023/09/30 10:24:23;;;;;;;9.32;4.43;;;18.40;99.90;;;;;;5091987;28;20043;-87
2023/09/30 10:27:32;;;;;;;11.20;4.32;;;18.50;99.90;;;;;;5067461;28;20059;-87
2023/09/30 10:29:59;;;;;;;9.95;4.03;;;18.50;99.90;;;;;;5092722;28;20728;-88
2023/09/30 10:32:50;;;;;;;10.15;4.63;;;18.60;99.90;;;;;;5091983;28;20091;-89
2023/09/30 10:35:20;;;;;;;7.25;3.47;;;18.60;99.90;;;;;;5091859;28;20545;-89
2023/09/30 10:37:46;;;;;;;9.65;4.32;;;18.80;99.90;;;;;;5103534;27;20058;-89
2023/09/30 10:40:30;;;;;;;9.95;3.97;;;18.80;99.90;;;;;;5113505;27;20052;-87
2023/09/30 10:42:57;;;;;;;8.40;3.45;;;19.10;99.90;;;;;;5102767;27;20061;-88
2023/09/30 10:45:42;;;;;;;6.55;3.47;;;19.30;99.90;;;;;;5080541;28;20036;-89
2023/09/30 10:48:36;;;;;;;6.80;2.92;;;20.00;99.90;;;;;;5104618;28;20054;-90
2023/09/30 10:51:15;;;;;;;7.03;2.75;;;19.60;99.90;;;;;;5109477;27;20051;-88
2023/09/30 10:53:44;;;;;;;8.32;2.67;;;19.80;99.90;;;;;;5091889;28;20091;-87
2023/09/30 10:56:09;;;;;;;8.30;2.50;;;19.90;99.90;;;;;;5094385;27;20188;-89
2023/09/30 10:58:48;;;;;;;7.05;2.67;;;19.90;99.90;;;;;;5094942;27;20039;-88
2023/09/30 11:01:22;;;;;;;7.38;2.47;;;20.00;99.90;;;;;;5110708;27;20138;-88
2023/09/30 11:03:52;;;;;;;8.55;3.05;;;19.70;99.90;;;;;;5111145;27;20070;-88
2023/09/30 11:06:21;;;;;;;6.43;2.28;;;19.90;99.90;;;;;;5111830;27;20107;-88
2023/09/30 11:08:55;;;;;;;8.18;2.50;;;19.90;99.90;;;;;;5110180;27;20117;-90
2023/09/30 11:11:34;;;;;;;6.35;2.38;;;19.90;99.90;;;;;;5090916;28;20048;-88
2023/09/30 11:13:59;;;;;;;5.15;1.90;;;19.70;99.90;;;;;;5091922;28;20051;-89
2023/09/30 11:16:25;;;;;;;7.38;2.17;;;19.50;99.90;;;;;;5090210;28;20047;-87
2023/09/30 11:18:54;;;;;;;4.40;1.95;;;19.50;99.90;;;;;;5104185;27;20040;-91
2023/09/30 11:21:22;;;;;;;7.43;2.40;;;19.60;99.90;;;;;;5110743;27;20366;-89
2023/09/30 11:23:48;;;;;;;4.20;2.15;;;19.60;99.90;;;;;;5098268;28;20050;-87
2023/09/30 11:26:14;;;;;;;4.03;1.92;;;19.60;99.90;;;;;;5096649;27;20445;-87
2023/09/30 11:28:41;;;;;;;4.47;1.85;;;19.50;99.90;;;;;;5110313;27;20483;-87
2023/09/30 11:31:13;;;;;;;6.45;2.08;;;19.30;99.90;;;;;;5092873;27;20080;-86
2023/09/30 11:33:50;;;;;;;7.03;2.00;;;19.20;99.90;;;;;;5086535;28;20040;-86
2023/09/30 11:36:16;;;;;;;4.85;1.90;;;19.00;99.90;;;;;;5072218;28;20043;-87
2023/09/30 11:38:46;;;;;;;6.53;2.00;;;19.20;99.90;;;;;;5098628;28;20059;-86
2023/09/30 11:41:12;;;;;;;6.15;1.83;;;19.60;99.90;;;;;;5072745;28;20538;-88
2023/09/30 11:43:39;;;;;;;6.28;2.13;;;19.50;99.90;;;;;;5066942;28;20048;-86
2023/09/30 11:46:13;;;;;;;4.03;1.55;;;19.70;99.90;;;;;;5066683;28;20057;-86
2023/09/30 11:49:00;;;;;;;9.68;2.45;;;19.80;99.90;;;;;;5066118;28;20449;-86
2023/09/30 11:51:27;;;;;;;7.75;2.53;;;20.10;99.90;;;;;;5049370;28;20048;-86
2023/09/30 11:53:54;;;;;;;7.03;1.88;;;20.30;99.90;;;;;;5094368;28;20054;-85
2023/09/30 11:56:20;;;;;;;8.88;1.90;;;19.90;99.90;;;;;;5106763;28;20082;-86
2023/09/30 11:58:50;;;;;;;5.88;1.95;;;19.80;99.90;;;;;;5095760;28;20105;-85
2023/09/30 12:01:16;;;;;;;3.78;1.50;;;20.10;99.90;;;;;;5072308;28;20044;-85
2023/09/30 12:03:43;;;;;;;5.78;1.67;;;19.70;99.90;;;;;;5085878;28;20044;-88
2023/09/30 12:06:13;;;;;;;4.85;1.80;;;19.70;99.90;;;;;;5086432;28;20505;-89
2023/09/30 12:08:40;;;;;;;4.55;1.33;;;19.80;99.90;;;;;;5068812;28;20475;-86
2023/09/30 12:11:06;;;;;;;4.88;1.40;;;19.80;99.90;;;;;;5069343;28;20048;-86
2023/09/30 12:13:31;;;;;;;4.63;1.20;;;20.70;99.90;;;;;;5067171;28;20043;-88
2023/09/30 12:15:57;;;;;;;4.15;1.60;;;20.00;99.90;;;;;;5089031;28;20048;-87
2023/09/30 12:18:24;;;;;;;5.18;1.50;;;20.50;99.90;;;;;;5096588;28;20067;-86
2023/09/30 12:20:53;;;;;;;4.85;1.48;;;20.10;99.90;;;;;;5107381;28;20085;-84
2023/09/30 12:23:21;;;;;;;4.93;1.40;;;20.10;99.90;;;;;;5107584;28;20051;-86
2023/09/30 12:25:47;;;;;;;2.83;1.40;;;20.20;99.90;;;;;;5105508;28;20118;-86
2023/09/30 12:28:15;;;;;;;3.42;1.40;;;20.20;99.90;;;;;;5089600;28;20139;-85
2023/09/30 12:30:40;;;;;;;4.72;1.50;;;20.60;99.90;;;;;;5105775;28;20051;-86
2023/09/30 12:33:07;;;;;;;5.15;1.90;;;20.20;99.90;;;;;;5083148;28;20044;-86
2023/09/30 12:35:33;;;;;;;7.82;1.63;;;20.20;99.90;;;;;;5105574;28;20050;-86
2023/09/30 12:37:59;;;;;;;4.60;1.60;;;20.20;99.90;;;;;;5091153;28;20060;-85
2023/09/30 12:40:26;;;;;;;4.50;1.70;;;20.30;99.90;;;;;;5097172;28;20127;-86
2023/09/30 12:42:53;;;;;;;4.45;1.40;;;20.30;99.90;;;;;;5106342;28;20516;-86